Time,TemperatureF,DewpointF,PressureIn,WindDirection,WindDirectionDegrees,WindSpeedMPH,WindSpeedGustMPH,Humidity,HourlyPrecipIn,Conditions,Clouds,dailyrainin,SoftwareType,DateUTC
2013-05-29 00:01:00,60.4,59.5,29.90,SSE,168,0.0,4.0,97,0.00,,,0.00,VWS V14.01,2013-05-29 04:01:00,
2013-05-29 00:16:00,60.7,59.8,29.89,SSW,200,0.0,6.0,97,0.00,,,0.00,VWS V14.01,2013-05-29 04:16:00,
2013-05-29 00:31:00,61.1,60.5,29.89,South,179,2.0,5.0,98,0.00,,,0.00,VWS V14.01,2013-05-29 04:31:00,
2013-05-29 00:46:00,61.3,60.4,29.89,South,182,0.0,3.0,97,0.01,,,0.01,VWS V14.01,2013-05-29 04:46:00,
2013-05-29 01:01:00,61.4,60.8,29.88,SSW,192,0.0,3.0,98,0.01,,,0.01,VWS V14.01,2013-05-29 05:01:00,
2013-05-29 01:16:00,61.9,61.3,29.88,SSE,150,2.0,5.0,98,0.01,,,0.01,VWS V14.01,2013-05-29 05:16:00,
2013-05-29 01:31:00,62.4,61.8,29.88,South,188,0.0,5.0,98,0.01,,,0.01,VWS V14.01,2013-05-29 05:31:00,
2013-05-29 01:46:00,62.8,62.2,29.89,South,191,0.0,4.0,98,0.01,,,0.01,VWS V14.01,2013-05-29 05:46:00,
2013-05-29 02:01:00,63.0,62.4,29.88,SSE,164,1.0,6.0,98,0.00,,,0.01,VWS V14.01,2013-05-29 06:01:00,
2013-05-29 02:16:00,63.1,62.5,29.88,South,186,0.0,7.0,98,0.03,,,0.04,VWS V14.01,2013-05-29 06:16:00,
2013-05-29 02:31:00,63.1,62.2,29.88,South,178,0.0,3.0,97,0.04,,,0.05,VWS V14.01,2013-05-29 06:31:00,
2013-05-29 02:46:00,62.9,62.0,29.88,South,178,0.0,0.0,97,0.09,,,0.10,VWS V14.01,2013-05-29 06:46:00,
2013-05-29 03:01:00,63.0,62.4,29.87,SSE,150,0.0,2.0,98,0.12,,,0.13,VWS V14.01,2013-05-29 07:01:00,
2013-05-29 03:16:00,62.9,62.3,29.87,SSE,150,0.0,0.0,98,0.13,,,0.14,VWS V14.01,2013-05-29 07:16:00,
2013-05-29 03:31:00,62.8,62.2,29.86,SSE,163,0.0,4.0,98,0.11,,,0.15,VWS V14.01,2013-05-29 07:31:00,
2013-05-29 03:46:00,62.9,62.3,29.85,SSW,198,0.0,4.0,98,0.11,,,0.16,VWS V14.01,2013-05-29 07:46:00,
2013-05-29 04:01:00,62.9,62.3,29.85,South,171,1.0,5.0,98,0.06,,,0.16,VWS V14.01,2013-05-29 08:01:00,
2013-05-29 04:16:00,63.1,62.5,29.88,NE,46,0.0,6.0,98,0.03,,,0.16,VWS V14.01,2013-05-29 08:16:00,
2013-05-29 04:31:00,63.1,62.5,29.89,West,265,0.0,6.0,98,0.02,,,0.16,VWS V14.01,2013-05-29 08:31:00,
2013-05-29 04:46:00,62.9,62.3,29.89,West,265,0.0,0.0,98,0.01,,,0.16,VWS V14.01,2013-05-29 08:46:00,
2013-05-29 05:01:00,62.5,61.6,29.90,West,265,0.0,0.0,97,0.00,,,0.16,VWS V14.01,2013-05-29 09:01:00,
2013-05-29 05:16:00,62.7,62.1,29.91,West,265,0.0,0.0,98,0.20,,,0.36,VWS V14.01,2013-05-29 09:16:00,
2013-05-29 05:31:00,62.9,62.3,29.91,West,264,0.0,0.0,98,0.33,,,0.49,VWS V14.01,2013-05-29 09:31:00,
2013-05-29 05:46:00,62.9,62.3,29.93,West,265,0.0,0.0,98,0.34,,,0.50,VWS V14.01,2013-05-29 09:46:00,
2013-05-29 06:01:00,62.9,62.3,29.93,West,264,0.0,0.0,98,0.34,,,0.50,VWS V14.01,2013-05-29 10:01:00,
2013-05-29 06:16:00,62.9,62.3,29.90,SSE,160,0.0,3.0,98,0.38,,,0.54,VWS V14.01,2013-05-29 10:16:00,
2013-05-29 06:31:00,63.0,62.4,29.90,SSE,167,0.0,4.0,98,0.20,,,0.56,VWS V14.01,2013-05-29 10:31:00,
2013-05-29 06:46:00,63.0,62.4,29.91,SSE,167,0.0,3.0,98,0.09,,,0.58,VWS V14.01,2013-05-29 10:46:00,
2013-05-29 07:01:00,63.1,62.5,29.91,SSE,167,0.0,1.0,98,0.20,,,0.70,VWS V14.01,2013-05-29 11:01:00,
2013-05-29 07:16:00,63.3,62.7,29.92,SSE,153,0.0,4.0,98,0.33,,,0.83,VWS V14.01,2013-05-29 11:16:00,
2013-05-29 07:31:00,63.6,63.0,29.91,SSW,196,0.0,4.0,98,0.30,,,0.84,VWS V14.01,2013-05-29 11:31:00,
2013-05-29 07:46:00,63.8,63.2,29.92,SSE,163,0.0,3.0,98,0.28,,,0.84,VWS V14.01,2013-05-29 11:46:00,
2013-05-29 08:01:00,64.0,63.4,29.91,SSW,203,0.0,4.0,98,0.26,,,0.84,VWS V14.01,2013-05-29 12:01:00,
2013-05-29 08:16:00,64.6,64.3,29.90,South,179,0.0,6.0,99,0.14,,,0.84,VWS V14.01,2013-05-29 12:16:00,
2013-05-29 08:31:00,65.5,65.2,29.90,South,180,0.0,4.0,99,0.01,,,0.84,VWS V14.01,2013-05-29 12:31:00,
2013-05-29 08:46:00,65.4,65.1,29.91,South,184,0.0,5.0,99,0.00,,,0.84,VWS V14.01,2013-05-29 12:46:00,
2013-05-29 09:01:00,65.6,65.3,29.90,South,178,0.0,5.0,99,0.00,,,0.84,VWS V14.01,2013-05-29 13:01:00,
2013-05-29 09:16:00,66.1,65.8,29.90,South,184,0.0,5.0,99,0.00,,,0.84,VWS V14.01,2013-05-29 13:16:00,
2013-05-29 09:31:00,67.0,66.7,29.90,SSW,199,0.0,5.0,99,0.00,,,0.84,VWS V14.01,2013-05-29 13:31:00,
2013-05-29 09:46:00,69.0,68.7,29.90,SW,215,3.0,6.0,99,0.00,,,0.84,VWS V14.01,2013-05-29 13:46:00,
2013-05-29 10:01:00,70.8,69.0,29.90,WSW,255,0.0,7.0,94,0.00,,,0.84,VWS V14.01,2013-05-29 14:01:00,
2013-05-29 10:16:00,73.0,68.2,29.90,WSW,237,2.0,10.0,85,0.00,,,0.84,VWS V14.01,2013-05-29 14:16:00,
2013-05-29 10:31:00,74.4,68.2,29.90,NW,305,0.0,10.0,81,0.00,,,0.84,VWS V14.01,2013-05-29 14:31:00,
2013-05-29 10:46:00,75.7,68.7,29.89,West,263,0.0,9.0,79,0.00,,,0.84,VWS V14.01,2013-05-29 14:46:00,
2013-05-29 11:01:00,76.6,68.9,29.88,WNW,291,0.0,9.0,77,0.00,,,0.84,VWS V14.01,2013-05-29 15:01:00,